Time;durP1;ratioP1;P1;durP2;ratioP2;P2;SDS_P1;SDS_P2;PMS_P1;PMS_P2;Temp;Humidity;BMP_temperature;BMP_pressure;BME280_temperature;BME280_humidity;BME280_pressure;Samples;Min_cycle;Max_cycle;Signal;HPM_P1;HPM_P2
2022/06/07 00:02:15;;;;;;;11.27;6.50;;;;;;;16.76;78.67;100712.47;1746859;80;21766;-72
2022/06/07 00:04:41;;;;;;;7.73;6.23;;;;;;;16.75;78.48;100704.92;1740929;80;21543;-72
2022/06/07 00:07:10;;;;;;;9.67;6.67;;;;;;;16.68;78.16;100712.54;1738083;80;21298;-72
2022/06/07 00:09:36;;;;;;;10.33;6.67;;;;;;;16.60;77.73;100716.71;1735728;80;21380;-72
2022/06/07 00:12:03;;;;;;;10.17;7.33;;;;;;;16.48;77.05;100716.90;1744241;80;21896;-72
2022/06/07 00:14:34;;;;;;;12.20;7.73;;;;;;;16.33;76.34;100704.45;1744165;80;21292;-73
2022/06/07 00:17:05;;;;;;;11.80;7.57;;;;;;;16.23;75.90;100704.61;1735054;80;21292;-73
2022/06/07 00:19:34;;;;;;;10.33;7.10;;;;;;;16.13;75.70;100702.30;1742232;80;21354;-73
2022/06/07 00:22:02;;;;;;;11.13;7.03;;;;;;;16.07;75.83;100701.31;1739918;80;21265;-73
2022/06/07 00:24:28;;;;;;;12.47;7.53;;;;;;;16.03;75.93;100702.98;1737290;80;21244;-73
2022/06/07 00:26:54;;;;;;;11.57;7.67;;;;;;;15.98;76.03;100702.49;1733381;80;21310;-72
2022/06/07 00:29:21;;;;;;;8.60;7.10;;;;;;;15.94;76.24;100702.27;1746249;80;21304;-73
2022/06/07 00:31:49;;;;;;;11.70;7.83;;;;;;;15.88;76.46;100702.63;1745128;80;21914;-73
2022/06/07 00:34:16;;;;;;;10.20;6.80;;;;;;;15.85;76.80;100699.16;1741050;80;21476;-72
2022/06/07 00:36:43;;;;;;;10.57;6.70;;;;;;;15.81;76.82;100704.87;1715861;81;21119;-73
2022/06/07 00:39:10;;;;;;;8.87;6.67;;;;;;;15.76;76.74;100704.41;1743900;80;22031;-73
2022/06/07 00:41:37;;;;;;;10.80;7.90;;;;;;;15.71;76.65;100701.20;1739821;80;21336;-73
2022/06/07 00:44:27;;;;;;;10.43;7.77;;;;;;;15.69;76.98;100706.62;1743047;80;21537;-72
2022/06/07 00:47:11;;;;;;;9.23;6.83;;;;;;;15.70;77.46;100704.20;1742020;80;21229;-73
2022/06/07 00:50:02;;;;;;;8.83;7.20;;;;;;;15.70;77.81;100706.34;1730807;80;21289;-73
2022/06/07 00:52:31;;;;;;;8.87;7.13;;;;;;;15.73;77.95;100708.19;1730728;80;22543;-74
2022/06/07 00:54:59;;;;;;;11.20;8.67;;;;;;;15.72;78.12;100704.70;1733641;80;21230;-71
2022/06/07 00:57:35;;;;;;;10.90;9.13;;;;;;;15.73;78.21;100704.98;1728246;80;21314;-73
2022/06/07 01:00:07;;;;;;;9.13;7.60;;;;;;;15.74;78.40;100701.73;1731962;82;21057;-74
2022/06/07 01:02:34;;;;;;;9.05;7.03;;;;;;;15.76;78.55;100703.05;1732384;80;21315;-73
2022/06/07 01:05:01;;;;;;;10.47;7.37;;;;;;;15.78;78.62;100701.41;1731555;81;21085;-73
2022/06/07 01:13:01;;;;;;;10.33;6.77;;;;;;;15.68;77.80;100700.98;1726515;82;21329;-73
2022/06/07 01:15:31;;;;;;;9.10;6.80;;;;;;;15.62;77.50;100702.89;1726835;82;21283;-73
2022/06/07 01:18:00;;;;;;;9.17;6.70;;;;;;;15.55;77.29;100706.48;1709729;81;21305;-72
2022/06/07 01:20:28;;;;;;;10.20;6.70;;;;;;;15.48;77.09;100701.44;1729656;80;21332;-73
2022/06/07 01:22:55;;;;;;;11.37;6.97;;;;;;;15.41;76.92;100701.53;1731848;82;21923;-74
2022/06/07 01:25:22;;;;;;;9.57;6.97;;;;;;;15.33;76.80;100702.94;1727878;80;21822;-72
2022/06/07 01:27:50;;;;;;;10.43;6.87;;;;;;;15.27;76.66;100707.30;1724463;82;21105;-73
2022/06/07 01:30:17;;;;;;;12.10;6.87;;;;;;;15.19;76.57;100708.19;1731662;80;21138;-72
2022/06/07 01:32:44;;;;;;;9.20;6.80;;;;;;;15.11;76.48;100708.81;1725952;81;21354;-73
2022/06/07 01:35:10;;;;;;;12.87;7.33;;;;;;;15.02;76.44;100707.81;1707703;81;21780;-73
2022/06/07 01:37:36;;;;;;;10.90;6.90;;;;;;;14.95;76.43;100707.34;1729420;82;21357;-72
2022/06/07 01:42:51;;;;;;;9.23;6.70;;;;;;;14.83;76.46;100713.08;1729698;81;21172;-73
2022/06/07 01:45:17;;;;;;;8.73;6.63;;;;;;;14.78;76.45;100710.45;1724414;80;21962;-72
2022/06/07 01:47:44;;;;;;;9.63;6.30;;;;;;;14.72;76.46;100714.25;1729618;82;21368;-72
2022/06/07 01:50:12;;;;;;;8.83;6.23;;;;;;;14.67;76.46;100712.39;1718271;82;21612;-72
2022/06/07 01:52:39;;;;;;;7.17;5.77;;;;;;;14.63;76.54;100711.90;1727709;80;21756;-72
2022/06/07 01:55:08;;;;;;;8.83;5.87;;;;;;;14.57;76.58;100707.64;1725185;81;21110;-72
2022/06/07 01:57:36;;;;;;;6.53;5.10;;;;;;;14.50;76.65;100707.41;1729500;80;21757;-72
2022/06/07 02:00:07;;;;;;;6.47;5.03;;;;;;;14.44;76.79;100706.34;1728887;80;21765;-73
2022/06/07 02:02:36;;;;;;;5.77;4.93;;;;;;;14.39;76.93;100703.70;1731403;82;21300;-72
2022/06/07 02:05:03;;;;;;;6.00;4.97;;;;;;;14.35;77.02;100710.72;1726084;81;21066;-72
2022/06/07 02:07:31;;;;;;;7.13;5.37;;;;;;;14.29;77.13;100708.05;1730063;82;22188;-72
2022/06/07 02:09:59;;;;;;;8.40;5.77;;;;;;;14.26;77.24;100701.89;1730004;81;21344;-73
2022/06/07 02:12:29;;;;;;;6.03;5.43;;;;;;;14.27;77.27;100703.48;1727938;82;21239;-72
2022/06/07 02:14:57;;;;;;;6.97;5.20;;;;;;;14.26;77.31;100708.61;1728882;80;21177;-72
2022/06/07 02:17:24;;;;;;;6.80;5.20;;;;;;;14.26;77.42;100707.27;1709529;81;21437;-72
2022/06/07 02:19:52;;;;;;;7.20;5.33;;;;;;;14.25;77.54;100707.02;1732760;80;21254;-73
2022/06/07 02:22:20;;;;;;;7.13;4.87;;;;;;;14.27;77.61;100704.83;1735272;82;21279;-72
2022/06/07 02:24:47;;;;;;;7.13;5.40;;;;;;;14.28;77.66;100709.14;1727140;80;21334;-72
2022/06/07 02:27:17;;;;;;;6.93;5.43;;;;;;;14.30;77.74;100709.66;1739518;80;21300;-73
2022/06/07 02:29:48;;;;;;;6.83;5.50;;;;;;;14.33;77.79;100708.84;1731883;82;21329;-72
2022/06/07 02:32:20;;;;;;;7.40;5.07;;;;;;;14.35;77.85;100708.04;1729917;82;21066;-72
2022/06/07 02:34:47;;;;;;;6.20;5.00;;;;;;;14.36;77.91;100708.29;1722489;80;21854;-72
2022/06/07 02:37:14;;;;;;;7.77;5.27;;;;;;;14.38;77.98;100704.77;1728146;81;21259;-72
2022/06/07 02:39:41;;;;;;;7.70;5.10;;;;;;;14.41;78.08;100710.93;1731250;82;21376;-72
2022/06/07 02:42:09;;;;;;;7.40;5.27;;;;;;;14.44;78.18;100713.06;1732138;82;21714;-73
2022/06/07 02:44:36;;;;;;;8.40;6.10;;;;;;;14.47;78.25;100711.16;1724626;82;21405;-72
2022/06/07 02:47:03;;;;;;;7.13;5.30;;;;;;;14.52;78.43;100716.55;1731941;80;21296;-72
2022/06/07 02:49:30;;;;;;;6.57;5.87;;;;;;;14.58;78.71;100711.41;1732282;82;21377;-73
2022/06/07 02:51:57;;;;;;;9.40;6.37;;;;;;;14.64;78.98;100707.60;1724088;81;21360;-73
2022/06/07 02:54:23;;;;;;;10.63;6.97;;;;;;;14.73;79.17;100712.61;1704595;82;21126;-74
2022/06/07 02:56:52;;;;;;;10.67;6.67;;;;;;;14.78;79.34;100713.14;1724681;80;21657;-74
2022/06/07 02:59:19;;;;;;;10.17;7.50;;;;;;;14.85;79.46;100714.16;1729385;81;21727;-74
2022/06/07 03:01:47;;;;;;;10.67;8.53;;;;;;;14.89;79.50;100711.95;1734489;81;22016;-73
2022/06/07 03:04:14;;;;;;;9.27;7.50;;;;;;;14.99;79.65;100720.48;1730170;81;21806;-72
2022/06/07 03:06:41;;;;;;;10.40;7.20;;;;;;;15.08;79.84;100710.73;1734372;82;21231;-73
2022/06/07 03:09:09;;;;;;;9.40;7.30;;;;;;;15.19;79.93;100711.42;1731961;81;21596;-73
2022/06/07 03:11:37;;;;;;;12.37;7.80;;;;;;;15.32;80.02;100714.00;1725429;80;21806;-73
2022/06/07 03:14:09;;;;;;;11.23;8.23;;;;;;;15.42;80.07;100715.23;1709661;82;21296;-73
2022/06/07 03:16:37;;;;;;;12.63;8.90;;;;;;;15.53;80.03;100709.19;1727528;82;21768;-73
2022/06/07 03:19:05;;;;;;;13.63;8.77;;;;;;;15.65;80.04;100710.40;1739224;81;21214;-74
2022/06/07 03:21:33;;;;;;;8.67;7.50;;;;;;;15.77;80.00;100701.95;1733604;82;21358;-72
2022/06/07 03:24:00;;;;;;;8.67;7.37;;;;;;;15.88;80.03;100703.97;1728215;81;21884;-73
2022/06/07 03:26:27;;;;;;;10.47;7.40;;;;;;;16.01;80.04;100701.12;1724836;82;21117;-73
2022/06/07 03:28:55;;;;;;;10.17;7.67;;;;;;;16.12;80.00;100707.44;1734383;81;21308;-73
2022/06/07 03:31:22;;;;;;;10.37;7.97;;;;;;;16.24;79.95;100703.50;1730199;82;21338;-73
2022/06/07 03:33:51;;;;;;;9.90;7.30;;;;;;;16.38;79.88;100709.77;1723855;82;21336;-73
2022/06/07 03:36:24;;;;;;;8.87;7.80;;;;;;;16.51;79.67;100702.83;1726740;80;21348;-73
2022/06/07 03:38:52;;;;;;;8.70;7.03;;;;;;;16.67;79.35;100703.41;1694451;83;21298;-73
2022/06/07 03:41:23;;;;;;;9.50;6.97;;;;;;;16.82;79.03;100703.20;1734810;82;21339;-73
2022/06/07 03:43:52;;;;;;;9.20;7.05;;;;;;;16.99;78.60;100701.30;1728563;82;23176;-72
2022/06/07 03:46:22;;;;;;;7.90;6.43;;;;;;;17.31;77.58;100694.51;1737455;80;21449;-74
2022/06/07 03:48:50;;;;;;;8.48;6.70;;;;;;;17.31;77.58;100694.51;1731285;81;21618;-73
2022/06/07 03:51:20;;;;;;;7.00;6.17;;;;;;;17.59;76.70;100692.60;1703886;82;21144;-73
2022/06/07 03:53:47;;;;;;;8.67;6.93;;;;;;;17.71;75.79;100692.11;1689018;82;21551;-73
2022/06/07 03:56:14;;;;;;;8.13;6.67;;;;;;;17.85;74.98;100689.42;1731747;82;22216;-72
2022/06/07 03:58:42;;;;;;;9.27;6.60;;;;;;;17.85;74.98;100689.42;1738683;81;21723;-74
2022/06/07 04:01:16;;;;;;;8.20;6.83;;;;;;;17.96;75.02;100685.39;1742104;82;21640;-72
2022/06/07 04:03:46;;;;;;;7.93;6.80;;;;;;;18.09;74.11;100693.22;1743249;82;22219;-73
2022/06/07 04:06:29;;;;;;;8.83;6.43;;;;;;;18.21;73.16;100693.50;1723485;80;22276;-74
2022/06/07 04:08:58;;;;;;;8.97;6.17;;;;;;;18.32;72.09;100688.66;1736135;81;21731;-73
2022/06/07 04:11:28;;;;;;;7.90;6.03;;;;;;;18.45;70.27;100694.57;1736767;82;22218;-74
2022/06/07 04:13:59;;;;;;;7.53;5.80;;;;;;;18.58;69.06;100690.77;1739215;82;21791;-74
2022/06/07 04:16:29;;;;;;;7.40;6.10;;;;;;;18.71;68.34;100687.20;1732860;82;21125;-74
2022/06/07 04:19:03;;;;;;;8.03;6.00;;;;;;;18.85;67.37;100694.72;1736482;80;21783;-74
2022/06/07 04:21:30;;;;;;;7.50;6.10;;;;;;;19.13;65.32;100691.87;1738732;82;21759;-74
2022/06/07 04:24:03;;;;;;;7.77;5.77;;;;;;;19.13;65.32;100691.87;1740300;80;21039;-73
2022/06/07 04:26:32;;;;;;;6.67;5.13;;;;;;;19.29;64.36;100690.35;1741903;80;21006;-73
2022/06/07 04:28:59;;;;;;;5.97;4.90;;;;;;;19.41;63.33;100689.22;1737052;81;21069;-73
2022/06/07 04:31:27;;;;;;;7.93;5.27;;;;;;;19.54;61.36;100693.46;1740644;81;21216;-73
2022/06/07 04:33:57;;;;;;;5.97;4.47;;;;;;;19.65;60.26;100695.61;1743348;80;20952;-74
2022/06/07 04:36:27;;;;;;;5.07;4.20;;;;;;;19.76;59.10;100687.19;1738432;81;21039;-75
2022/06/07 04:38:57;;;;;;;7.50;4.37;;;;;;;19.89;58.02;100684.34;1716775;82;20957;-75
2022/06/07 04:41:25;;;;;;;6.30;4.17;;;;;;;20.01;56.26;100682.94;1739257;80;21273;-73
2022/06/07 04:43:55;;;;;;;5.97;3.77;;;;;;;20.14;55.63;100680.64;1734238;80;21477;-74
2022/06/07 04:46:22;;;;;;;5.90;4.37;;;;;;;20.28;54.96;100681.27;1735032;82;21614;-73
2022/06/07 04:48:50;;;;;;;4.80;3.80;;;;;;;20.39;54.47;100683.89;1739360;80;21090;-74
2022/06/07 04:51:31;;;;;;;5.57;4.40;;;;;;;20.50;54.36;100686.28;1738572;81;20999;-73
2022/06/07 04:54:04;;;;;;;4.90;4.00;;;;;;;20.61;54.13;100687.59;1732734;80;21142;-74
2022/06/07 04:56:35;;;;;;;5.50;4.13;;;;;;;20.74;54.06;100682.55;1733037;82;21036;-73
2022/06/07 04:59:03;;;;;;;6.30;4.30;;;;;;;20.86;53.42;100684.58;1734922;80;21586;-72
2022/06/07 05:01:37;;;;;;;5.80;4.20;;;;;;;20.98;53.03;100690.71;1725603;81;21092;-72
2022/06/07 05:04:06;;;;;;;6.50;4.50;;;;;;;21.10;52.76;100690.84;1743045;81;21102;-74
2022/06/07 05:06:40;;;;;;;6.83;4.37;;;;;;;21.24;52.82;100690.63;1742231;82;22399;-72
2022/06/07 05:09:17;;;;;;;4.90;4.00;;;;;;;21.37;51.97;100692.94;1739051;80;20965;-72
2022/06/07 05:11:47;;;;;;;5.67;4.00;;;;;;;21.48;51.40;100690.86;1702753;81;21235;-73
2022/06/07 05:14:13;;;;;;;4.90;3.93;;;;;;;21.63;51.10;100696.89;1745264;82;21063;-73
2022/06/07 05:16:42;;;;;;;6.50;3.70;;;;;;;21.74;50.44;100698.09;1742211;80;21016;-72
2022/06/07 05:19:12;;;;;;;5.40;3.80;;;;;;;21.83;50.19;100701.56;1738467;80;21173;-73
2022/06/07 05:21:39;;;;;;;6.13;4.00;;;;;;;21.92;49.88;100703.67;1732144;82;21030;-73
2022/06/07 05:24:06;;;;;;;6.87;3.53;;;;;;;22.03;50.19;100702.72;1743880;82;20991;-72
2022/06/07 05:26:44;;;;;;;6.00;4.10;;;;;;;22.16;50.06;100698.18;1734927;82;21791;-73
2022/06/07 05:29:48;;;;;;;4.73;3.60;;;;;;;22.27;49.49;100702.66;1727652;82;21554;-73
2022/06/07 05:32:17;;;;;;;6.20;3.97;;;;;;;22.39;49.55;100702.16;1730295;82;21117;-74
2022/06/07 05:34:45;;;;;;;5.80;4.10;;;;;;;22.52;50.10;100700.28;1743729;82;21538;-73
2022/06/07 05:37:16;;;;;;;7.20;4.20;;;;;;;22.61;49.84;100705.66;1724128;80;21043;-74
2022/06/07 05:39:43;;;;;;;8.37;5.50;;;;;;;22.69;49.78;100704.20;1731088;81;20964;-71
2022/06/07 05:42:14;;;;;;;6.97;3.97;;;;;;;22.80;49.31;100707.30;1742473;80;21023;-73
2022/06/07 05:44:41;;;;;;;5.87;3.70;;;;;;;22.94;48.60;100712.49;1735922;80;21883;-73
2022/06/07 05:47:09;;;;;;;5.83;3.70;;;;;;;23.04;48.45;100706.61;1737115;81;21685;-73
2022/06/07 05:49:43;;;;;;;4.27;3.50;;;;;;;23.18;48.25;100698.12;1738466;82;20964;-73
2022/06/07 05:52:12;;;;;;;4.93;3.20;;;;;;;23.32;48.19;100699.94;1743320;82;21047;-74
2022/06/07 05:54:41;;;;;;;3.40;2.40;;;;;;;23.43;47.13;100694.86;1733352;81;21183;-72
2022/06/07 05:57:10;;;;;;;4.43;3.03;;;;;;;23.46;45.99;100696.91;1726008;80;21261;-73
2022/06/07 05:59:39;;;;;;;3.93;2.87;;;;;;;23.48;45.87;100698.70;1747539;80;21060;-73
2022/06/07 06:02:07;;;;;;;3.83;2.60;;;;;;;23.55;45.02;100698.92;1740668;81;21091;-76
2022/06/07 06:04:36;;;;;;;4.73;2.70;;;;;;;23.65;44.79;100703.12;1730493;82;21035;-73
2022/06/07 06:07:04;;;;;;;4.97;2.70;;;;;;;23.75;44.03;100697.23;1739498;81;21060;-74
2022/06/07 06:12:21;;;;;;;3.33;2.47;;;;;;;23.99;44.00;100699.16;1735754;81;21034;-74
2022/06/07 06:14:54;;;;;;;4.30;2.20;;;;;;;24.05;43.53;100690.96;1724826;80;20959;-72
2022/06/07 06:17:24;;;;;;;3.47;2.00;;;;;;;24.14;42.74;100692.75;1737523;82;21070;-74
2022/06/07 06:19:52;;;;;;;5.43;2.53;;;;;;;24.24;40.99;100688.95;1743966;80;20983;-74
2022/06/07 06:22:19;;;;;;;4.60;2.50;;;;;;;24.33;40.69;100692.92;1735658;80;21336;-72
2022/06/07 06:24:49;;;;;;;5.07;2.60;;;;;;;24.43;40.70;100691.09;1729149;80;21017;-73
2022/06/07 06:27:18;;;;;;;4.67;2.23;;;;;;;24.54;40.31;100682.61;1735270;81;21004;-74
2022/06/07 06:29:46;;;;;;;4.00;2.47;;;;;;;24.65;39.47;100689.75;1736467;80;21045;-73
2022/06/07 06:32:13;;;;;;;4.63;2.10;;;;;;;24.69;39.71;100681.07;1734213;80;21510;-74
2022/06/07 06:34:40;;;;;;;4.73;2.10;;;;;;;24.70;39.61;100683.23;1730025;82;21173;-74
2022/06/07 06:37:09;;;;;;;3.00;2.00;;;;;;;24.72;37.96;100679.02;1732538;80;21031;-73
2022/06/07 06:39:37;;;;;;;3.20;2.00;;;;;;;24.76;38.74;100683.98;1731683;82;21209;-72
2022/06/07 06:42:04;;;;;;;3.20;1.90;;;;;;;24.79;38.09;100680.56;1732822;80;21044;-73
2022/06/07 06:44:35;;;;;;;4.00;2.10;;;;;;;24.80;38.46;100676.67;1731716;80;20980;-73
2022/06/07 06:47:02;;;;;;;3.57;2.17;;;;;;;24.85;38.63;100672.91;1727892;82;21064;-73
2022/06/07 06:49:29;;;;;;;4.47;1.70;;;;;;;24.93;37.90;100674.66;1725931;82;21154;-73
2022/06/07 06:51:58;;;;;;;3.27;1.80;;;;;;;24.97;37.53;100673.39;1723832;82;21526;-73
2022/06/07 06:54:29;;;;;;;3.80;2.00;;;;;;;25.06;37.47;100672.65;1720991;82;21055;-73
2022/06/07 06:57:01;;;;;;;6.43;1.80;;;;;;;25.16;37.91;100668.63;1725822;82;21098;-73
2022/06/07 06:59:31;;;;;;;2.30;1.60;;;;;;;25.33;37.61;100667.47;1739182;82;21116;-73
2022/06/07 07:02:00;;;;;;;3.47;1.67;;;;;;;25.48;37.19;100666.09;1737652;82;21079;-73
2022/06/07 07:04:30;;;;;;;2.87;1.50;;;;;;;25.65;36.82;100662.75;1741512;82;21020;-73
2022/06/07 07:06:58;;;;;;;2.63;1.47;;;;;;;25.80;36.06;100653.75;1741648;82;21563;-73
2022/06/07 07:09:26;;;;;;;2.30;1.30;;;;;;;25.96;35.40;100657.23;1724482;82;21066;-73
2022/06/07 07:11:56;;;;;;;2.60;1.23;;;;;;;26.10;34.11;100661.41;1736310;82;21219;-74
2022/06/07 07:14:25;;;;;;;2.37;1.10;;;;;;;26.17;34.63;100661.55;1734297;82;21665;-73
2022/06/07 07:16:52;;;;;;;1.87;1.37;;;;;;;26.27;33.10;100658.23;1719195;80;21063;-73
2022/06/07 07:19:22;;;;;;;3.33;1.20;;;;;;;26.33;33.44;100656.80;1726503;82;21313;-72
2022/06/07 07:21:50;;;;;;;1.87;1.10;;;;;;;26.46;33.26;100655.28;1729401;82;21008;-73
2022/06/07 07:24:21;;;;;;;1.80;1.30;;;;;;;26.54;32.32;100658.38;1722600;81;21128;-73
2022/06/07 07:26:51;;;;;;;1.80;1.20;;;;;;;26.58;32.35;100660.61;1728109;80;21610;-73
2022/06/07 07:29:20;;;;;;;1.77;1.30;;;;;;;26.67;31.95;100654.33;1720003;81;21891;-73
2022/06/07 07:31:48;;;;;;;2.63;1.30;;;;;;;26.78;31.88;100658.62;1705967;82;21051;-73
2022/06/07 07:34:17;;;;;;;2.83;1.33;;;;;;;26.88;31.35;100659.38;1728974;80;21110;-72
2022/06/07 07:36:49;;;;;;;1.83;1.20;;;;;;;26.97;31.55;100662.67;1730837;80;21684;-73
2022/06/07 07:39:17;;;;;;;1.32;0.90;;;;;;;27.10;31.80;100661.91;1738982;80;21052;-73
2022/06/07 07:41:45;;;;;;;2.10;1.27;;;;;;;27.25;31.34;100658.87;1741669;80;21055;-73
2022/06/07 07:44:14;;;;;;;1.97;1.27;;;;;;;27.24;30.39;100662.75;1725459;81;21114;-74
2022/06/07 07:46:43;;;;;;;2.10;1.20;;;;;;;27.13;30.99;100659.84;1739190;81;21106;-72
2022/06/07 07:49:13;;;;;;;3.13;1.30;;;;;;;27.18;30.73;100657.36;1755778;81;21869;-72
2022/06/07 07:51:44;;;;;;;2.73;1.07;;;;;;;27.20;28.63;100660.53;1738914;82;21165;-73
2022/06/07 07:54:17;;;;;;;2.17;1.20;;;;;;;27.14;30.28;100665.53;1729627;80;21045;-72
2022/06/07 07:56:44;;;;;;;2.85;1.10;;;;;;;27.09;29.27;100661.70;1741413;82;21573;-73
2022/06/07 07:59:14;;;;;;;2.23;1.23;;;;;;;27.08;29.83;100662.84;1743541;80;20979;-73
2022/06/07 08:01:41;;;;;;;1.92;1.17;;;;;;;27.17;29.75;100664.80;1740816;82;21137;-73
2022/06/07 08:04:09;;;;;;;1.80;1.13;;;;;;;27.30;30.12;100659.33;1720133;81;20927;-74
2022/06/07 08:06:38;;;;;;;1.80;1.40;;;;;;;27.45;29.93;100657.61;1743656;82;21088;-74
2022/06/07 08:09:08;;;;;;;2.50;1.60;;;;;;;27.59;29.63;100653.69;1728063;80;21052;-74
2022/06/07 08:11:36;;;;;;;;;;;;;;;27.72;29.18;100657.01;1502202;81;10000368;-74
2022/06/07 08:14:06;;;;;;;2.67;1.57;;;;;;;27.87;29.19;100654.47;1741547;81;20199;-73
2022/06/07 08:16:34;;;;;;;;;;;;;;;27.93;27.98;100654.36;1743122;81;21102;-72
2022/06/07 08:19:01;;;;;;;1.60;1.10;;;;;;;27.87;27.72;100651.73;1731475;80;21251;-73
2022/06/07 08:21:30;;;;;;;2.73;1.23;;;;;;;27.84;28.26;100647.80;1728160;80;21034;-73
2022/06/07 08:23:57;;;;;;;3.63;1.67;;;;;;;27.90;28.11;100646.87;1734988;80;21700;-73
2022/06/07 08:26:26;;;;;;;2.30;1.50;;;;;;;27.97;28.95;100645.58;1736991;81;21042;-74
2022/06/07 08:28:54;;;;;;;2.57;1.60;;;;;;;28.14;29.03;100638.16;1723307;80;22268;-73
2022/06/07 08:31:24;;;;;;;2.70;1.50;;;;;;;28.22;29.04;100640.41;1740090;81;21133;-72
2022/06/07 08:39:25;;;;;;;2.40;1.50;;;;;;;28.19;28.11;100647.42;1738509;82;21036;-73
2022/06/07 08:42:09;;;;;;;4.27;1.67;;;;;;;28.24;27.75;100636.13;1740032;81;21047;-73
2022/06/07 08:44:50;;;;;;;3.87;2.07;;;;;;;28.23;27.69;100645.53;1724789;82;21087;-73
2022/06/07 08:47:33;;;;;;;4.03;1.98;;;;;;;28.23;27.49;100640.59;1724393;82;21043;-73
2022/06/07 08:50:13;;;;;;;2.67;1.40;;;;;;;28.24;27.94;100642.20;1731640;82;21047;-73
2022/06/07 08:52:40;;;;;;;4.10;1.97;;;;;;;28.36;27.63;100639.77;1714592;80;21102;-73
2022/06/07 08:55:24;;;;;;;3.00;1.50;;;;;;;28.42;28.05;100636.33;1729272;80;21098;-73
2022/06/07 08:57:58;;;;;;;4.83;1.70;;;;;;;28.46;28.36;100633.63;1734203;80;21105;-72
2022/06/07 09:00:29;;;;;;;4.20;1.90;;;;;;;28.59;28.35;100637.67;1728714;81;21344;-73
2022/06/07 09:03:39;;;;;;;2.60;1.83;;;;;;;28.78;28.04;100633.94;1720800;80;21060;-73
2022/06/07 09:06:17;;;;;;;3.37;1.73;;;;;;;28.97;27.51;100628.80;1675682;83;21170;-74
2022/06/07 09:42:28;;;;;;;3.10;1.70;;;;;;;29.04;26.97;100609.63;1800587;77;26407;-77
2022/06/07 09:45:16;;;;;;;2.80;1.53;;;;;;;29.16;26.56;100607.18;1787692;79;21037;-79
2022/06/07 09:47:43;;;;;;;1.97;1.47;;;;;;;29.29;26.54;100607.66;1797365;78;21068;-79
2022/06/07 09:50:33;;;;;;;2.57;1.47;;;;;;;29.39;25.21;100600.84;1801069;78;21020;-78
2022/06/07 09:53:11;;;;;;;1.93;1.47;;;;;;;29.19;25.50;100600.33;1796203;78;21504;-78
2022/06/07 09:56:01;;;;;;;2.97;1.50;;;;;;;29.07;26.65;100598.47;1767039;79;21087;-79
2022/06/07 09:58:51;;;;;;;2.10;1.30;;;;;;;29.04;26.16;100594.52;1794681;79;21115;-77
2022/06/07 10:01:25;;;;;;;3.77;1.40;;;;;;;29.09;26.59;100599.67;1775068;78;21684;-77
2022/06/07 10:03:57;;;;;;;2.70;1.40;;;;;;;29.07;26.81;100595.71;1766086;79;20967;-77
2022/06/07 10:06:34;;;;;;;5.90;2.60;;;;;;;29.10;26.09;100595.73;1720746;79;21043;-75
2022/06/07 10:09:45;;;;;;;2.37;1.57;;;;;;;29.15;26.09;100581.61;1773404;79;21001;-77
2022/06/07 10:12:30;;;;;;;2.07;1.37;;;;;;;29.27;25.88;100581.89;1764094;80;21067;-74
2022/06/07 10:15:10;;;;;;;2.20;1.13;;;;;;;29.47;25.57;100585.15;1767797;79;21848;-79
2022/06/07 11:41:42;;;;;;;2.10;1.50;;;;;;;29.51;25.86;100510.86;1808601;79;27258;-72
2022/06/07 11:44:30;;;;;;;2.33;1.60;;;;;;;29.61;25.63;100511.52;1816807;79;20916;-71
2022/06/07 11:47:11;;;;;;;2.50;1.30;;;;;;;29.53;25.46;100506.56;1805750;79;21221;-72
2022/06/07 11:49:54;;;;;;;2.80;1.30;;;;;;;29.41;26.02;100505.52;1809689;79;20988;-71
2022/06/07 11:52:25;;;;;;;2.83;1.50;;;;;;;29.55;25.86;100509.72;1817655;79;21051;-72
2022/06/07 11:55:06;;;;;;;2.40;1.70;;;;;;;29.58;25.04;100502.63;1782823;79;20968;-71
2022/06/07 11:58:04;;;;;;;2.17;1.33;;;;;;;29.93;24.53;100497.85;1816836;79;21479;-72
2022/06/07 12:00:36;;;;;;;3.27;1.67;;;;;;;29.99;23.97;100496.89;1816602;79;21238;-73
2022/06/07 12:03:12;;;;;;;2.13;1.40;;;;;;;29.90;24.34;100494.50;1807903;79;20990;-73
2022/06/07 12:05:56;;;;;;;2.80;1.40;;;;;;;29.89;24.23;100488.80;1816686;78;21549;-72
2022/06/07 12:08:34;;;;;;;2.23;1.40;;;;;;;29.93;24.81;100495.09;1816831;79;21012;-72
2022/06/07 12:11:20;;;;;;;2.53;1.60;;;;;;;29.91;23.75;100486.43;1815800;79;21023;-73
2022/06/07 12:14:12;;;;;;;2.67;1.50;;;;;;;29.93;24.92;100488.22;1817226;79;20885;-74
2022/06/07 12:25:57;;;;;;;2.80;1.60;;;;;;;30.56;24.71;100477.05;1805182;77;21117;-73
2022/06/07 12:28:31;;;;;;;3.60;1.77;;;;;;;30.81;24.37;100475.67;1799114;77;21094;-72
2022/06/07 12:30:59;;;;;;;3.33;1.90;;;;;;;30.74;24.14;100479.80;1807296;79;21118;-72
2022/06/07 12:33:29;;;;;;;3.67;1.83;;;;;;;30.54;24.26;100479.44;1800523;79;20952;-73
2022/06/07 12:36:02;;;;;;;3.23;1.80;;;;;;;30.45;24.35;100473.53;1803785;79;21081;-73
2022/06/07 12:38:30;;;;;;;3.13;1.73;;;;;;;30.33;24.12;100474.70;1730696;81;21079;-76
2022/06/07 12:41:03;;;;;;;2.83;1.77;;;;;;;30.17;24.53;100470.73;1755642;81;20940;-72
2022/06/07 12:43:34;;;;;;;2.40;1.60;;;;;;;30.09;24.85;100467.20;1722508;83;21264;-72
2022/06/07 12:46:07;;;;;;;2.63;1.80;;;;;;;30.09;24.39;100470.73;1770093;81;21527;-72
2022/06/07 12:48:40;;;;;;;3.90;1.90;;;;;;;30.10;24.17;100461.88;1703505;84;21005;-72
2022/06/07 12:51:35;;;;;;;3.93;2.10;;;;;;;30.17;24.82;100454.98;1731958;82;20985;-73
2022/06/07 12:54:09;;;;;;;3.80;1.80;;;;;;;30.27;24.25;100452.06;1694442;82;20980;-73
2022/06/07 12:56:39;;;;;;;2.80;1.60;;;;;;;30.19;24.52;100451.29;1724434;82;21293;-71
2022/06/07 12:59:09;;;;;;;3.60;1.80;;;;;;;30.10;23.88;100448.10;1732148;82;21086;-73
2022/06/07 13:01:40;;;;;;;3.43;2.07;;;;;;;29.95;24.11;100443.19;1732277;82;21186;-72
2022/06/07 13:04:30;;;;;;;2.93;1.90;;;;;;;29.89;24.42;100439.23;1701255;82;21011;-73
2022/06/07 13:07:11;;;;;;;3.17;1.90;;;;;;;29.95;24.92;100436.89;1732627;82;20940;-72
2022/06/07 13:09:39;;;;;;;4.37;2.00;;;;;;;30.04;24.62;100436.70;1719365;83;21258;-72
2022/06/07 13:12:08;;;;;;;2.90;2.00;;;;;;;30.19;24.76;100435.36;1742026;81;20997;-73
2022/06/07 13:14:35;;;;;;;3.40;2.40;;;;;;;30.42;24.39;100435.73;1737243;82;21073;-73
2022/06/07 13:17:16;;;;;;;3.90;2.20;;;;;;;30.56;23.97;100434.33;1737527;81;21143;-72
2022/06/07 13:19:45;;;;;;;2.77;2.05;;;;;;;30.67;24.62;100436.27;1737760;81;21090;-73
2022/06/07 13:22:17;;;;;;;3.63;2.20;;;;;;;30.85;23.61;100431.55;1739450;81;21903;-72
2022/06/07 13:24:51;;;;;;;2.98;2.05;;;;;;;30.82;23.74;100429.58;1743700;81;21130;-74
2022/06/07 13:27:51;;;;;;;4.20;2.53;;;;;;;30.82;23.36;100430.96;1737395;82;21058;-73
2022/06/07 13:30:24;;;;;;;4.00;2.07;;;;;;;30.57;24.09;100423.52;1737375;81;21070;-72
2022/06/07 13:33:23;;;;;;;3.27;2.00;;;;;;;30.58;24.67;100427.84;1768207;81;21161;-73
2022/06/07 13:36:03;;;;;;;3.23;1.50;;;;;;;30.79;24.52;100427.02;1767926;81;21287;-72
2022/06/07 13:38:41;;;;;;;3.90;1.70;;;;;;;30.93;24.09;100420.70;1767453;81;20944;-72
2022/06/07 13:41:18;;;;;;;3.60;1.80;;;;;;;31.18;23.91;100423.34;1767841;81;21011;-73
2022/06/07 13:44:00;;;;;;;2.43;1.63;;;;;;;31.23;23.33;100418.80;1735310;81;21032;-73
2022/06/07 13:47:01;;;;;;;3.00;1.67;;;;;;;31.34;23.05;100417.39;1724987;82;21047;-72
2022/06/07 13:55:31;;;;;;;2.75;1.60;;;;;;;31.82;22.71;100411.76;1738189;82;21015;-72
2022/06/07 13:57:58;;;;;;;4.17;1.80;;;;;;;32.00;22.14;100400.80;1737965;82;20960;-72
2022/06/07 14:00:24;;;;;;;2.80;1.80;;;;;;;31.97;21.91;100406.36;1737239;82;21053;-72
2022/06/07 14:02:51;;;;;;;3.73;1.93;;;;;;;31.96;22.48;100404.20;1737538;81;21066;-72
2022/06/07 14:05:28;;;;;;;2.47;1.60;;;;;;;32.21;22.37;100408.71;1737262;82;21003;-72
2022/06/07 14:07:56;;;;;;;2.17;1.40;;;;;;;32.55;21.75;100405.28;1736177;82;20979;-73
2022/06/07 14:10:23;;;;;;;3.17;1.70;;;;;;;32.80;22.18;100397.47;1738253;82;21019;-73
2022/06/07 14:12:50;;;;;;;2.58;1.60;;;;;;;33.18;21.91;100389.74;1737558;82;20978;-73
2022/06/07 14:15:17;;;;;;;2.65;1.40;;;;;;;33.82;21.83;100394.34;1737173;82;21246;-74